Pleasant Hill, Iowa
Current Conditions -  °F | °C
As of 12:54 AM on Friday 28 Nov 2014 (Local Time) from KDSM Reporting Station
Overcast Overcast  
Wind Chill:   Ceiling: 12000
Heat Index: 15°   Visibility: 10mi
Dew Point:   Wind: 12mph
Humidity: 70%   Direction: 140°SE
Pressure: 30.22"   Gusts: NA
Location:  41.5827°N, 93.4933°W
Report Text: KDSM 280654Z 14010KT 10SM BKN120 OVC140 M09/M14 A3022 RMK AO2 SLP250 T10941139
Loading
Personal Weather Stations






























Interactive Weather Map New forecast layout! Learn more

10-Day Weather Forecast

Advertisements
Track Severe Weather on mobile